sensor_id;sensor_type;location;lat;lon;timestamp;pressure;altitude;pressure_sealevel;temperature;humidity
45621;BME280;31345;51.522;10.702;2023-05-14T00:02:12;99444.53;;;7.99;100.00
45621;BME280;31345;51.522;10.702;2023-05-14T00:04:46;99442.38;;;7.90;100.00
45621;BME280;31345;51.522;10.702;2023-05-14T00:07:19;99441.38;;;7.92;100.00
45621;BME280;31345;51.522;10.702;2023-05-14T00:09:51;99437.94;;;7.92;100.00
45621;BME280;31345;51.522;10.702;2023-05-14T00:12:23;99437.31;;;7.87;100.00
45621;BME280;31345;51.522;10.702;2023-05-14T00:14:56;99436.41;;;7.88;100.00
45621;BME280;31345;51.522;10.702;2023-05-14T00:17:28;99427.91;;;8.02;100.00
45621;BME280;31345;51.522;10.702;2023-05-14T00:19:57;99429.91;;;8.14;100.00
45621;BME280;31345;51.522;10.702;2023-05-14T00:22:25;99432.28;;;8.19;100.00
45621;BME280;31345;51.522;10.702;2023-05-14T00:24:57;99423.13;;;8.28;100.00
45621;BME280;31345;51.522;10.702;2023-05-14T00:27:30;99427.66;;;8.42;100.00
45621;BME280;31345;51.522;10.702;2023-05-14T00:29:57;99421.63;;;8.41;100.00
45621;BME280;31345;51.522;10.702;2023-05-14T00:32:30;99429.13;;;8.30;100.00
45621;BME280;31345;51.522;10.702;2023-05-14T00:34:58;99425.75;;;8.45;100.00
45621;BME280;31345;51.522;10.702;2023-05-14T00:37:33;99428.41;;;8.44;100.00
45621;BME280;31345;51.522;10.702;2023-05-14T00:40:01;99416.19;;;8.28;100.00
45621;BME280;31345;51.522;10.702;2023-05-14T00:42:36;99413.50;;;7.94;100.00
45621;BME280;31345;51.522;10.702;2023-05-14T00:45:05;99422.28;;;7.74;100.00
45621;BME280;31345;51.522;10.702;2023-05-14T00:47:33;99417.63;;;7.63;100.00
45621;BME280;31345;51.522;10.702;2023-05-14T00:50:03;99413.72;;;7.72;100.00
45621;BME280;31345;51.522;10.702;2023-05-14T00:52:36;99412.19;;;7.86;100.00
45621;BME280;31345;51.522;10.702;2023-05-14T00:55:10;99412.28;;;8.02;100.00
45621;BME280;31345;51.522;10.702;2023-05-14T00:57:41;99416.19;;;7.75;100.00
45621;BME280;31345;51.522;10.702;2023-05-14T01:00:15;99408.00;;;7.65;100.00
45621;BME280;31345;51.522;10.702;2023-05-14T01:02:42;99405.47;;;7.81;100.00
45621;BME280;31345;51.522;10.702;2023-05-14T01:05:11;99407.44;;;7.94;100.00
45621;BME280;31345;51.522;10.702;2023-05-14T01:07:47;99403.25;;;7.91;100.00
45621;BME280;31345;51.522;10.702;2023-05-14T01:10:25;99404.75;;;7.60;100.00
45621;BME280;31345;51.522;10.702;2023-05-14T01:13:04;99403.31;;;7.72;100.00
45621;BME280;31345;51.522;10.702;2023-05-14T01:15:41;99404.63;;;7.81;100.00
45621;BME280;31345;51.522;10.702;2023-05-14T01:18:14;99403.78;;;7.98;100.00
45621;BME280;31345;51.522;10.702;2023-05-14T01:20:50;99405.53;;;8.15;100.00
45621;BME280;31345;51.522;10.702;2023-05-14T01:23:19;99407.13;;;8.36;100.00
45621;BME280;31345;51.522;10.702;2023-05-14T01:25:51;99407.28;;;8.15;100.00
45621;BME280;31345;51.522;10.702;2023-05-14T01:28:23;99402.38;;;8.26;100.00
45621;BME280;31345;51.522;10.702;2023-05-14T01:30:56;99414.47;;;8.45;100.00
45621;BME280;31345;51.522;10.702;2023-05-14T01:33:30;99405.13;;;8.41;100.00
45621;BME280;31345;51.522;10.702;2023-05-14T01:35:59;99399.84;;;8.42;100.00
45621;BME280;31345;51.522;10.702;2023-05-14T01:38:28;99402.97;;;8.49;100.00
45621;BME280;31345;51.522;10.702;2023-05-14T01:40:59;99407.16;;;8.52;100.00
45621;BME280;31345;51.522;10.702;2023-05-14T01:43:28;99403.19;;;8.44;100.00
45621;BME280;31345;51.522;10.702;2023-05-14T01:45:56;99396.34;;;8.26;100.00
45621;BME280;31345;51.522;10.702;2023-05-14T01:48:29;99397.78;;;8.31;100.00
45621;BME280;31345;51.522;10.702;2023-05-14T01:50:57;99390.75;;;8.16;100.00
45621;BME280;31345;51.522;10.702;2023-05-14T01:53:25;99395.19;;;8.14;100.00
45621;BME280;31345;51.522;10.702;2023-05-14T01:55:58;99396.75;;;8.00;100.00
45621;BME280;31345;51.522;10.702;2023-05-14T01:58:26;99399.28;;;8.02;100.00
45621;BME280;31345;51.522;10.702;2023-05-14T02:00:58;99398.34;;;8.03;100.00
45621;BME280;31345;51.522;10.702;2023-05-14T02:03:26;99391.91;;;7.92;100.00
45621;BME280;31345;51.522;10.702;2023-05-14T02:05:53;99388.22;;;7.97;100.00
45621;BME280;31345;51.522;10.702;2023-05-14T02:08:21;99381.78;;;8.04;100.00
45621;BME280;31345;51.522;10.702;2023-05-14T02:10:54;99387.84;;;7.87;100.00
45621;BME280;31345;51.522;10.702;2023-05-14T02:13:30;99388.91;;;7.82;100.00
45621;BME280;31345;51.522;10.702;2023-05-14T02:16:03;99390.84;;;7.97;100.00
45621;BME280;31345;51.522;10.702;2023-05-14T02:18:36;99385.03;;;8.09;100.00
45621;BME280;31345;51.522;10.702;2023-05-14T02:21:08;99382.03;;;8.17;100.00
45621;BME280;31345;51.522;10.702;2023-05-14T02:23:36;99379.44;;;7.99;100.00
45621;BME280;31345;51.522;10.702;2023-05-14T02:26:08;99383.19;;;7.93;100.00
45621;BME280;31345;51.522;10.702;2023-05-14T02:28:42;99377.75;;;7.98;100.00
45621;BME280;31345;51.522;10.702;2023-05-14T02:31:12;99380.19;;;8.01;100.00
45621;BME280;31345;51.522;10.702;2023-05-14T02:33:41;99378.03;;;8.10;100.00
45621;BME280;31345;51.522;10.702;2023-05-14T02:36:08;99374.81;;;8.22;100.00
45621;BME280;31345;51.522;10.702;2023-05-14T02:38:41;99366.97;;;8.40;100.00
45621;BME280;31345;51.522;10.702;2023-05-14T02:41:09;99373.22;;;8.53;100.00
45621;BME280;31345;51.522;10.702;2023-05-14T02:43:37;99377.06;;;8.46;100.00
45621;BME280;31345;51.522;10.702;2023-05-14T02:46:11;99373.41;;;8.32;100.00
45621;BME280;31345;51.522;10.702;2023-05-14T02:48:38;99374.88;;;8.38;100.00
45621;BME280;31345;51.522;10.702;2023-05-14T02:51:06;99363.59;;;8.38;100.00
45621;BME280;31345;51.522;10.702;2023-05-14T02:53:33;99362.75;;;8.37;100.00
45621;BME280;31345;51.522;10.702;2023-05-14T02:56:01;99363.06;;;8.31;100.00
45621;BME280;31345;51.522;10.702;2023-05-14T02:58:33;99359.63;;;8.30;100.00
45621;BME280;31345;51.522;10.702;2023-05-14T03:01:01;99358.66;;;8.49;100.00
45621;BME280;31345;51.522;10.702;2023-05-14T03:03:30;99356.91;;;8.66;100.00
45621;BME280;31345;51.522;10.702;2023-05-14T03:06:03;99354.50;;;8.79;100.00
45621;BME280;31345;51.522;10.702;2023-05-14T03:08:31;99354.34;;;8.82;100.00
45621;BME280;31345;51.522;10.702;2023-05-14T03:11:03;99358.28;;;8.73;100.00
45621;BME280;31345;51.522;10.702;2023-05-14T03:13:37;99357.41;;;8.72;100.00
45621;BME280;31345;51.522;10.702;2023-05-14T03:16:04;99350.28;;;8.76;100.00
45621;BME280;31345;51.522;10.702;2023-05-14T03:18:38;99358.84;;;8.78;100.00
45621;BME280;31345;51.522;10.702;2023-05-14T03:21:13;99363.66;;;8.86;100.00
45621;BME280;31345;51.522;10.702;2023-05-14T03:23:41;99356.44;;;8.91;100.00
45621;BME280;31345;51.522;10.702;2023-05-14T03:26:08;99356.94;;;8.82;100.00
45621;BME280;31345;51.522;10.702;2023-05-14T03:28:41;99350.72;;;8.84;100.00
45621;BME280;31345;51.522;10.702;2023-05-14T03:31:08;99360.28;;;8.84;100.00
45621;BME280;31345;51.522;10.702;2023-05-14T03:33:36;99358.38;;;8.88;100.00
45621;BME280;31345;51.522;10.702;2023-05-14T03:36:05;99355.25;;;8.97;100.00
45621;BME280;31345;51.522;10.702;2023-05-14T03:38:38;99355.59;;;9.07;100.00
45621;BME280;31345;51.522;10.702;2023-05-14T03:41:10;99353.56;;;9.12;100.00
45621;BME280;31345;51.522;10.702;2023-05-14T03:43:38;99356.94;;;9.14;100.00
45621;BME280;31345;51.522;10.702;2023-05-14T03:46:05;99357.25;;;9.24;100.00
45621;BME280;31345;51.522;10.702;2023-05-14T03:48:33;99364.25;;;9.23;100.00
45621;BME280;31345;51.522;10.702;2023-05-14T03:51:03;99362.66;;;9.21;100.00
45621;BME280;31345;51.522;10.702;2023-05-14T03:53:32;99361.31;;;9.30;100.00
45621;BME280;31345;51.522;10.702;2023-05-14T03:56:00;99361.47;;;9.10;100.00
45621;BME280;31345;51.522;10.702;2023-05-14T03:58:32;99365.09;;;8.92;100.00
45621;BME280;31345;51.522;10.702;2023-05-14T04:01:05;99359.63;;;8.96;100.00
45621;BME280;31345;51.522;10.702;2023-05-14T04:03:32;99365.69;;;8.97;100.00
45621;BME280;31345;51.522;10.702;2023-05-14T04:06:00;99362.16;;;9.14;100.00
45621;BME280;31345;51.522;10.702;2023-05-14T04:08:27;99359.09;;;9.22;100.00
45621;BME280;31345;51.522;10.702;2023-05-14T04:11:02;99361.22;;;9.31;100.00
45621;BME280;31345;51.522;10.702;2023-05-14T04:13:29;99352.22;;;9.21;100.00
45621;BME280;31345;51.522;10.702;2023-05-14T04:15:57;99356.53;;;9.06;100.00
45621;BME280;31345;51.522;10.702;2023-05-14T04:18:30;99352.13;;;9.06;100.00
45621;BME280;31345;51.522;10.702;2023-05-14T04:21:05;99352.63;;;9.29;100.00
45621;BME280;31345;51.522;10.702;2023-05-14T04:23:32;99351.09;;;9.25;100.00
45621;BME280;31345;51.522;10.702;2023-05-14T04:26:01;99350.00;;;9.29;100.00
45621;BME280;31345;51.522;10.702;2023-05-14T04:28:34;99345.66;;;9.30;100.00
45621;BME280;31345;51.522;10.702;2023-05-14T04:31:07;99351.25;;;9.38;100.00
45621;BME280;31345;51.522;10.702;2023-05-14T04:33:34;99354.69;;;9.38;100.00
45621;BME280;31345;51.522;10.702;2023-05-14T04:36:07;99341.22;;;9.46;100.00
45621;BME280;31345;51.522;10.702;2023-05-14T04:38:35;99345.34;;;9.50;100.00
45621;BME280;31345;51.522;10.702;2023-05-14T04:41:04;99347.50;;;9.58;100.00
45621;BME280;31345;51.522;10.702;2023-05-14T04:43:38;99344.28;;;9.69;100.00
45621;BME280;31345;51.522;10.702;2023-05-14T04:46:10;99345.31;;;9.81;100.00
45621;BME280;31345;51.522;10.702;2023-05-14T04:48:39;99342.94;;;9.93;100.00
45621;BME280;31345;51.522;10.702;2023-05-14T04:51:06;99344.97;;;9.87;100.00
45621;BME280;31345;51.522;10.702;2023-05-14T04:53:34;99343.97;;;9.90;100.00
45621;BME280;31345;51.522;10.702;2023-05-14T04:56:01;99341.81;;;9.97;100.00
45621;BME280;31345;51.522;10.702;2023-05-14T04:58:35;99349.97;;;10.07;100.00
45621;BME280;31345;51.522;10.702;2023-05-14T05:01:03;99345.50;;;10.23;100.00
45621;BME280;31345;51.522;10.702;2023-05-14T05:03:32;99337.41;;;10.28;100.00
45621;BME280;31345;51.522;10.702;2023-05-14T05:05:59;99343.72;;;10.38;100.00
45621;BME280;31345;51.522;10.702;2023-05-14T05:08:27;99346.97;;;10.57;100.00
45621;BME280;31345;51.522;10.702;2023-05-14T05:10:59;99341.94;;;10.68;100.00
45621;BME280;31345;51.522;10.702;2023-05-14T05:13:32;99344.81;;;10.78;100.00
45621;BME280;31345;51.522;10.702;2023-05-14T05:16:01;99341.06;;;10.82;100.00
45621;BME280;31345;51.522;10.702;2023-05-14T05:18:28;99340.25;;;10.82;100.00
45621;BME280;31345;51.522;10.702;2023-05-14T05:20:56;99344.25;;;10.87;100.00
45621;BME280;31345;51.522;10.702;2023-05-14T05:23:23;99343.59;;;10.84;100.00
45621;BME280;31345;51.522;10.702;2023-05-14T05:25:51;99337.63;;;10.82;100.00
45621;BME280;31345;51.522;10.702;2023-05-14T05:28:18;99346.03;;;10.87;100.00
45621;BME280;31345;51.522;10.702;2023-05-14T05:30:46;99343.13;;;10.91;100.00
45621;BME280;31345;51.522;10.702;2023-05-14T05:33:19;99347.31;;;10.94;100.00
45621;BME280;31345;51.522;10.702;2023-05-14T05:35:47;99344.97;;;11.04;100.00
45621;BME280;31345;51.522;10.702;2023-05-14T05:38:15;99341.53;;;11.16;100.00
45621;BME280;31345;51.522;10.702;2023-05-14T05:40:43;99345.66;;;11.21;100.00
45621;BME280;31345;51.522;10.702;2023-05-14T05:43:15;99344.00;;;11.33;100.00
45621;BME280;31345;51.522;10.702;2023-05-14T05:45:43;99341.72;;;11.41;100.00
45621;BME280;31345;51.522;10.702;2023-05-14T05:48:16;99339.56;;;11.48;100.00
45621;BME280;31345;51.522;10.702;2023-05-14T05:50:50;99342.38;;;11.44;100.00
45621;BME280;31345;51.522;10.702;2023-05-14T05:56:09;99340.28;;;11.50;100.00
45621;BME280;31345;51.522;10.702;2023-05-14T05:58:37;99338.84;;;11.59;100.00
45621;BME280;31345;51.522;10.702;2023-05-14T06:01:04;99336.94;;;11.61;100.00
45621;BME280;31345;51.522;10.702;2023-05-14T06:03:32;99338.41;;;11.65;100.00
45621;BME280;31345;51.522;10.702;2023-05-14T06:06:00;99346.41;;;11.76;100.00
45621;BME280;31345;51.522;10.702;2023-05-14T06:08:28;99346.81;;;11.83;100.00
45621;BME280;31345;51.522;10.702;2023-05-14T06:11:00;99342.25;;;11.87;100.00
45621;BME280;31345;51.522;10.702;2023-05-14T06:13:29;99342.66;;;11.93;100.00
45621;BME280;31345;51.522;10.702;2023-05-14T06:15:57;99345.94;;;11.97;100.00
45621;BME280;31345;51.522;10.702;2023-05-14T06:18:25;99337.16;;;11.98;100.00
45621;BME280;31345;51.522;10.702;2023-05-14T06:20:52;99339.03;;;12.09;100.00
45621;BME280;31345;51.522;10.702;2023-05-14T06:23:26;99344.59;;;12.17;100.00
45621;BME280;31345;51.522;10.702;2023-05-14T06:25:59;99351.28;;;12.21;100.00
45621;BME280;31345;51.522;10.702;2023-05-14T06:28:33;99340.72;;;12.36;100.00
45621;BME280;31345;51.522;10.702;2023-05-14T06:31:05;99348.47;;;12.38;100.00
45621;BME280;31345;51.522;10.702;2023-05-14T06:33:33;99345.28;;;12.45;100.00
45621;BME280;31345;51.522;10.702;2023-05-14T06:36:06;99346.56;;;12.53;100.00
45621;BME280;31345;51.522;10.702;2023-05-14T06:38:39;99344.03;;;12.64;100.00
45621;BME280;31345;51.522;10.702;2023-05-14T06:41:06;99346.94;;;12.72;100.00
45621;BME280;31345;51.522;10.702;2023-05-14T06:43:40;99355.97;;;12.68;100.00
45621;BME280;31345;51.522;10.702;2023-05-14T06:46:07;99345.06;;;12.62;100.00
45621;BME280;31345;51.522;10.702;2023-05-14T06:48:35;99345.91;;;12.62;100.00
45621;BME280;31345;51.522;10.702;2023-05-14T06:51:07;99339.06;;;12.72;100.00
45621;BME280;31345;51.522;10.702;2023-05-14T06:53:41;99340.84;;;12.72;100.00
45621;BME280;31345;51.522;10.702;2023-05-14T06:56:13;99339.25;;;12.82;100.00
45621;BME280;31345;51.522;10.702;2023-05-14T06:58:47;99334.09;;;13.05;100.00
45621;BME280;31345;51.522;10.702;2023-05-14T07:01:15;99326.72;;;13.23;100.00
45621;BME280;31345;51.522;10.702;2023-05-14T07:06:41;99315.16;;;13.62;100.00
45621;BME280;31345;51.522;10.702;2023-05-14T07:09:30;99315.19;;;13.73;100.00
45621;BME280;31345;51.522;10.702;2023-05-14T07:11:58;99304.97;;;13.93;100.00
45621;BME280;31345;51.522;10.702;2023-05-14T07:14:31;99308.94;;;14.10;100.00
45621;BME280;31345;51.522;10.702;2023-05-14T07:17:04;99297.06;;;14.27;100.00
45621;BME280;31345;51.522;10.702;2023-05-14T07:19:36;99300.66;;;14.49;100.00
45621;BME280;31345;51.522;10.702;2023-05-14T07:22:09;99298.59;;;14.64;100.00
45621;BME280;31345;51.522;10.702;2023-05-14T07:24:36;99301.66;;;14.81;100.00
45621;BME280;31345;51.522;10.702;2023-05-14T07:27:09;99297.47;;;15.01;100.00
45621;BME280;31345;51.522;10.702;2023-05-14T07:29:39;99285.69;;;15.17;100.00
45621;BME280;31345;51.522;10.702;2023-05-14T07:32:11;99285.53;;;15.30;97.66
45621;BME280;31345;51.522;10.702;2023-05-14T07:34:44;99282.69;;;15.43;94.63
45621;BME280;31345;51.522;10.702;2023-05-14T07:37:16;99272.41;;;15.61;90.69
45621;BME280;31345;51.522;10.702;2023-05-14T07:39:48;99276.69;;;15.84;90.25
45621;BME280;31345;51.522;10.702;2023-05-14T07:42:21;99275.56;;;16.07;90.44
45621;BME280;31345;51.522;10.702;2023-05-14T07:44:50;99274.06;;;16.15;88.38
45621;BME280;31345;51.522;10.702;2023-05-14T07:47:22;99274.53;;;16.20;89.11
45621;BME280;31345;51.522;10.702;2023-05-14T07:49:55;99264.09;;;16.18;85.07
45621;BME280;31345;51.522;10.702;2023-05-14T07:52:28;99266.00;;;16.38;88.96
45621;BME280;31345;51.522;10.702;2023-05-14T07:55:02;99258.06;;;16.38;88.68
45621;BME280;31345;51.522;10.702;2023-05-14T07:57:34;99264.66;;;16.63;87.74
45621;BME280;31345;51.522;10.702;2023-05-14T08:00:09;99263.00;;;16.92;87.88
45621;BME280;31345;51.522;10.702;2023-05-14T08:02:40;99267.63;;;17.09;86.98
45621;BME280;31345;51.522;10.702;2023-05-14T08:05:08;99250.09;;;17.28;84.38
45621;BME280;31345;51.522;10.702;2023-05-14T08:07:35;99254.81;;;17.44;84.35
45621;BME280;31345;51.522;10.702;2023-05-14T08:10:04;99255.53;;;17.17;77.87
45621;BME280;31345;51.522;10.702;2023-05-14T08:12:37;99249.94;;;17.20;78.50
45621;BME280;31345;51.522;10.702;2023-05-14T08:15:05;99253.69;;;17.37;78.78
45621;BME280;31345;51.522;10.702;2023-05-14T08:17:40;99250.66;;;17.52;78.27
45621;BME280;31345;51.522;10.702;2023-05-14T08:20:08;99238.41;;;17.51;72.63
45621;BME280;31345;51.522;10.702;2023-05-14T08:22:37;99242.19;;;17.86;71.86
45621;BME280;31345;51.522;10.702;2023-05-14T08:25:09;99240.59;;;18.03;72.08
45621;BME280;31345;51.522;10.702;2023-05-14T08:27:37;99241.00;;;18.36;72.23
45621;BME280;31345;51.522;10.702;2023-05-14T08:30:05;99237.66;;;18.62;70.26
45621;BME280;31345;51.522;10.702;2023-05-14T08:32:39;99238.28;;;19.11;73.27
45621;BME280;31345;51.522;10.702;2023-05-14T08:35:08;99237.59;;;19.09;69.59
45621;BME280;31345;51.522;10.702;2023-05-14T08:37:40;99226.81;;;19.28;70.38
45621;BME280;31345;51.522;10.702;2023-05-14T08:40:09;99230.97;;;19.58;69.23
45621;BME280;31345;51.522;10.702;2023-05-14T08:42:37;99226.41;;;19.60;71.44
45621;BME280;31345;51.522;10.702;2023-05-14T08:45:11;99221.25;;;19.13;70.32
45621;BME280;31345;51.522;10.702;2023-05-14T08:47:52;99219.06;;;19.09;68.42
45621;BME280;31345;51.522;10.702;2023-05-14T08:50:21;99217.63;;;18.96;68.85
45621;BME280;31345;51.522;10.702;2023-05-14T08:52:50;99218.41;;;18.88;69.34
45621;BME280;31345;51.522;10.702;2023-05-14T08:55:21;99215.19;;;19.03;66.99
45621;BME280;31345;51.522;10.702;2023-05-14T08:57:48;99211.81;;;18.93;67.47
45621;BME280;31345;51.522;10.702;2023-05-14T09:00:21;99210.81;;;18.94;69.29
45621;BME280;31345;51.522;10.702;2023-05-14T09:02:49;99212.53;;;19.03;66.78
45621;BME280;31345;51.522;10.702;2023-05-14T09:05:19;99203.97;;;19.27;67.47
45621;BME280;31345;51.522;10.702;2023-05-14T09:07:53;99202.13;;;19.28;63.00
45621;BME280;31345;51.522;10.702;2023-05-14T09:10:26;99202.59;;;19.23;62.64
45621;BME280;31345;51.522;10.702;2023-05-14T09:13:06;99200.25;;;19.47;61.74
45621;BME280;31345;51.522;10.702;2023-05-14T09:15:40;99203.06;;;19.72;63.66
45621;BME280;31345;51.522;10.702;2023-05-14T09:18:08;99195.06;;;19.98;63.50
45621;BME280;31345;51.522;10.702;2023-05-14T09:20:37;99187.09;;;20.41;65.05
45621;BME280;31345;51.522;10.702;2023-05-14T09:23:05;99189.22;;;20.38;64.70
45621;BME280;31345;51.522;10.702;2023-05-14T09:25:37;99182.09;;;20.30;61.62
45621;BME280;31345;51.522;10.702;2023-05-14T09:28:07;99179.22;;;20.06;58.20
45621;BME280;31345;51.522;10.702;2023-05-14T09:30:35;99177.13;;;20.43;62.55
45621;BME280;31345;51.522;10.702;2023-05-14T09:33:02;99174.47;;;19.84;55.58
45621;BME280;31345;51.522;10.702;2023-05-14T09:35:32;99172.31;;;20.30;58.77
45621;BME280;31345;51.522;10.702;2023-05-14T09:38:01;99172.38;;;20.80;63.02
45621;BME280;31345;51.522;10.702;2023-05-14T09:40:33;99165.47;;;20.19;57.11
45621;BME280;31345;51.522;10.702;2023-05-14T09:43:01;99165.50;;;19.23;60.99
45621;BME280;31345;51.522;10.702;2023-05-14T09:45:28;99178.09;;;19.56;66.67
45621;BME280;31345;51.522;10.702;2023-05-14T09:47:58;99175.97;;;19.86;59.33
45621;BME280;31345;51.522;10.702;2023-05-14T09:50:26;99166.31;;;20.20;61.34
45621;BME280;31345;51.522;10.702;2023-05-14T09:52:58;99160.91;;;19.95;59.01
45621;BME280;31345;51.522;10.702;2023-05-14T09:55:28;99159.16;;;19.42;58.03
45621;BME280;31345;51.522;10.702;2023-05-14T09:57:55;99156.19;;;19.19;60.63
45621;BME280;31345;51.522;10.702;2023-05-14T10:00:28;99155.88;;;18.77;61.41
45621;BME280;31345;51.522;10.702;2023-05-14T10:02:56;99153.34;;;18.39;61.89
45621;BME280;31345;51.522;10.702;2023-05-14T10:05:29;99149.19;;;18.37;63.56
45621;BME280;31345;51.522;10.702;2023-05-14T10:08:06;99152.28;;;19.05;63.52
45621;BME280;31345;51.522;10.702;2023-05-14T10:10:41;99147.19;;;20.08;61.33
45621;BME280;31345;51.522;10.702;2023-05-14T10:13:12;99145.50;;;20.92;60.35
45621;BME280;31345;51.522;10.702;2023-05-14T10:15:47;99121.75;;;20.65;52.38
45621;BME280;31345;51.522;10.702;2023-05-14T10:18:23;99135.03;;;20.82;60.83
45621;BME280;31345;51.522;10.702;2023-05-14T10:20:59;99133.19;;;20.66;59.04
45621;BME280;31345;51.522;10.702;2023-05-14T10:23:30;99134.94;;;21.48;61.36
45621;BME280;31345;51.522;10.702;2023-05-14T10:26:04;99128.06;;;20.89;59.70
45621;BME280;31345;51.522;10.702;2023-05-14T10:28:32;99127.19;;;20.30;55.81
45621;BME280;31345;51.522;10.702;2023-05-14T10:31:08;99126.19;;;19.80;57.23
45621;BME280;31345;51.522;10.702;2023-05-14T10:33:45;99126.16;;;19.72;58.31
45621;BME280;31345;51.522;10.702;2023-05-14T10:36:14;99128.94;;;19.62;62.34
45621;BME280;31345;51.522;10.702;2023-05-14T10:38:42;99125.59;;;19.25;56.71
45621;BME280;31345;51.522;10.702;2023-05-14T10:41:16;99120.06;;;18.91;60.21
45621;BME280;31345;51.522;10.702;2023-05-14T10:43:49;99122.09;;;18.98;64.03
45621;BME280;31345;51.522;10.702;2023-05-14T10:46:16;99118.50;;;19.07;67.33
45621;BME280;31345;51.522;10.702;2023-05-14T10:48:49;99117.16;;;19.03;67.78
45621;BME280;31345;51.522;10.702;2023-05-14T10:51:22;99119.00;;;19.02;64.96
45621;BME280;31345;51.522;10.702;2023-05-14T10:53:55;99119.97;;;19.01;66.95
45621;BME280;31345;51.522;10.702;2023-05-14T10:56:24;99117.94;;;18.95;61.42
45621;BME280;31345;51.522;10.702;2023-05-14T10:58:57;99116.00;;;19.06;64.74
45621;BME280;31345;51.522;10.702;2023-05-14T11:01:31;99112.59;;;18.87;61.59
45621;BME280;31345;51.522;10.702;2023-05-14T11:04:04;99112.34;;;18.98;62.64
45621;BME280;31345;51.522;10.702;2023-05-14T11:06:32;99106.44;;;18.86;59.39
45621;BME280;31345;51.522;10.702;2023-05-14T11:09:00;99106.00;;;18.91;61.87
45621;BME280;31345;51.522;10.702;2023-05-14T11:11:34;99103.19;;;18.93;63.33
45621;BME280;31345;51.522;10.702;2023-05-14T11:14:08;99105.31;;;19.15;59.44
45621;BME280;31345;51.522;10.702;2023-05-14T11:16:36;99094.75;;;18.97;54.50
45621;BME280;31345;51.522;10.702;2023-05-14T11:19:09;99092.31;;;19.04;56.05
45621;BME280;31345;51.522;10.702;2023-05-14T11:21:37;99098.41;;;19.23;58.62
45621;BME280;31345;51.522;10.702;2023-05-14T11:24:10;99094.59;;;19.25;60.34
45621;BME280;31345;51.522;10.702;2023-05-14T11:26:39;99095.72;;;19.49;60.17
45621;BME280;31345;51.522;10.702;2023-05-14T11:29:06;99085.91;;;19.41;55.45
45621;BME280;31345;51.522;10.702;2023-05-14T11:31:39;99087.78;;;19.92;59.22
45621;BME280;31345;51.522;10.702;2023-05-14T11:34:11;99070.59;;;20.63;52.35
45621;BME280;31345;51.522;10.702;2023-05-14T11:36:44;99074.63;;;21.32;57.46
45621;BME280;31345;51.522;10.702;2023-05-14T11:39:16;99067.06;;;21.93;53.72
45621;BME280;31345;51.522;10.702;2023-05-14T11:41:50;99072.53;;;22.46;51.89
45621;BME280;31345;51.522;10.702;2023-05-14T11:44:18;99072.53;;;22.23;48.57
45621;BME280;31345;51.522;10.702;2023-05-14T11:46:53;99072.22;;;21.63;50.25
45621;BME280;31345;51.522;10.702;2023-05-14T11:49:21;99081.03;;;20.15;60.58
45621;BME280;31345;51.522;10.702;2023-05-14T11:51:49;99083.88;;;19.35;60.94
45621;BME280;31345;51.522;10.702;2023-05-14T11:54:16;99092.78;;;18.36;67.78
45621;BME280;31345;51.522;10.702;2023-05-14T11:56:50;99093.81;;;17.61;75.04
45621;BME280;31345;51.522;10.702;2023-05-14T11:59:23;99095.66;;;17.13;79.73
45621;BME280;31345;51.522;10.702;2023-05-14T12:01:51;99106.84;;;16.37;87.34
45621;BME280;31345;51.522;10.702;2023-05-14T12:04:24;99112.47;;;16.03;90.78
45621;BME280;31345;51.522;10.702;2023-05-14T12:06:57;99101.22;;;16.01;85.04
45621;BME280;31345;51.522;10.702;2023-05-14T12:09:35;99096.19;;;15.88;95.33
45621;BME280;31345;51.522;10.702;2023-05-14T12:12:09;99099.78;;;15.87;100.00
45621;BME280;31345;51.522;10.702;2023-05-14T12:14:42;99099.16;;;16.04;100.00
45621;BME280;31345;51.522;10.702;2023-05-14T12:17:12;99099.94;;;15.95;100.00
45621;BME280;31345;51.522;10.702;2023-05-14T12:19:47;99094.53;;;15.97;100.00
45621;BME280;31345;51.522;10.702;2023-05-14T12:22:16;99093.91;;;16.14;100.00
45621;BME280;31345;51.522;10.702;2023-05-14T12:24:52;99091.63;;;16.00;100.00
45621;BME280;31345;51.522;10.702;2023-05-14T12:27:27;99082.91;;;16.09;100.00
45621;BME280;31345;51.522;10.702;2023-05-14T12:29:58;99079.03;;;16.23;100.00
45621;BME280;31345;51.522;10.702;2023-05-14T12:32:25;99073.50;;;16.46;100.00
45621;BME280;31345;51.522;10.702;2023-05-14T12:34:53;99077.78;;;16.77;100.00
45621;BME280;31345;51.522;10.702;2023-05-14T12:37:20;99074.22;;;17.06;100.00
45621;BME280;31345;51.522;10.702;2023-05-14T12:39:53;99068.06;;;17.25;100.00
45621;BME280;31345;51.522;10.702;2023-05-14T12:42:27;99061.13;;;17.24;93.33
45621;BME280;31345;51.522;10.702;2023-05-14T12:44:59;99060.34;;;17.52;96.63
45621;BME280;31345;51.522;10.702;2023-05-14T12:47:35;99060.81;;;17.65;96.15
45621;BME280;31345;51.522;10.702;2023-05-14T12:50:09;99047.50;;;17.57;82.96
45621;BME280;31345;51.522;10.702;2023-05-14T12:52:36;99049.88;;;17.78;89.54
45621;BME280;31345;51.522;10.702;2023-05-14T12:55:04;99047.81;;;17.72;86.48
45621;BME280;31345;51.522;10.702;2023-05-14T12:57:33;99045.06;;;17.92;89.43
45621;BME280;31345;51.522;10.702;2023-05-14T13:00:07;99037.13;;;17.92;84.31
45621;BME280;31345;51.522;10.702;2023-05-14T13:02:36;99032.38;;;17.77;79.77
45621;BME280;31345;51.522;10.702;2023-05-14T13:05:09;99029.16;;;17.73;80.26
45621;BME280;31345;51.522;10.702;2023-05-14T13:07:41;99022.31;;;17.81;77.38
45621;BME280;31345;51.522;10.702;2023-05-14T13:10:09;99025.50;;;18.03;81.36
45621;BME280;31345;51.522;10.702;2023-05-14T13:12:44;99014.22;;;17.82;72.64